sensor_id;sensor_type;location;lat;lon;timestamp;P1;durP1;ratioP1;P2;durP2;ratioP2
74158;SDS011;62511;47.970;11.774;2023-03-20T00:01:42;3.67;;;1.67;;
74158;SDS011;62511;47.970;11.774;2023-03-20T00:04:09;2.83;;;2.13;;
74158;SDS011;62511;47.970;11.774;2023-03-20T00:06:36;2.42;;;1.90;;
74158;SDS011;62511;47.970;11.774;2023-03-20T00:09:02;2.15;;;1.63;;
74158;SDS011;62511;47.970;11.774;2023-03-20T00:11:30;2.83;;;2.17;;
74158;SDS011;62511;47.970;11.774;2023-03-20T00:14:04;3.28;;;1.95;;
74158;SDS011;62511;47.970;11.774;2023-03-20T00:16:35;3.08;;;2.03;;
74158;SDS011;62511;47.970;11.774;2023-03-20T00:19:01;3.35;;;1.73;;
74158;SDS011;62511;47.970;11.774;2023-03-20T00:21:28;3.47;;;1.70;;
74158;SDS011;62511;47.970;11.774;2023-03-20T00:23:54;1.65;;;1.40;;
74158;SDS011;62511;47.970;11.774;2023-03-20T00:26:23;2.28;;;1.70;;
74158;SDS011;62511;47.970;11.774;2023-03-20T00:28:49;3.65;;;1.75;;
74158;SDS011;62511;47.970;11.774;2023-03-20T00:31:27;3.05;;;1.65;;
74158;SDS011;62511;47.970;11.774;2023-03-20T00:33:54;4.13;;;1.70;;
74158;SDS011;62511;47.970;11.774;2023-03-20T00:36:21;2.67;;;1.73;;
74158;SDS011;62511;47.970;11.774;2023-03-20T00:38:48;1.80;;;1.58;;
74158;SDS011;62511;47.970;11.774;2023-03-20T00:43:40;2.88;;;1.70;;
74158;SDS011;62511;47.970;11.774;2023-03-20T00:46:10;5.05;;;1.83;;
74158;SDS011;62511;47.970;11.774;2023-03-20T00:48:37;3.47;;;1.80;;
74158;SDS011;62511;47.970;11.774;2023-03-20T00:51:04;4.03;;;1.85;;
74158;SDS011;62511;47.970;11.774;2023-03-20T00:53:31;2.25;;;1.48;;
74158;SDS011;62511;47.970;11.774;2023-03-20T00:55:58;3.05;;;1.45;;
74158;SDS011;62511;47.970;11.774;2023-03-20T00:58:25;2.75;;;1.45;;
74158;SDS011;62511;47.970;11.774;2023-03-20T01:00:51;2.53;;;1.70;;
74158;SDS011;62511;47.970;11.774;2023-03-20T01:03:18;1.25;;;0.95;;
74158;SDS011;62511;47.970;11.774;2023-03-20T01:05:44;1.65;;;1.40;;
74158;SDS011;62511;47.970;11.774;2023-03-20T01:08:15;2.53;;;1.33;;
74158;SDS011;62511;47.970;11.774;2023-03-20T01:10:42;2.50;;;1.45;;
74158;SDS011;62511;47.970;11.774;2023-03-20T01:13:12;3.30;;;1.40;;
74158;SDS011;62511;47.970;11.774;2023-03-20T01:15:40;2.53;;;1.10;;
74158;SDS011;62511;47.970;11.774;2023-03-20T01:18:08;2.15;;;1.50;;
74158;SDS011;62511;47.970;11.774;2023-03-20T01:20:35;2.15;;;1.30;;
74158;SDS011;62511;47.970;11.774;2023-03-20T01:23:04;1.45;;;0.90;;
74158;SDS011;62511;47.970;11.774;2023-03-20T01:25:30;1.25;;;0.95;;
74158;SDS011;62511;47.970;11.774;2023-03-20T01:27:56;1.80;;;1.40;;
74158;SDS011;62511;47.970;11.774;2023-03-20T01:30:40;1.63;;;0.95;;
74158;SDS011;62511;47.970;11.774;2023-03-20T01:33:14;1.70;;;1.05;;
74158;SDS011;62511;47.970;11.774;2023-03-20T01:38:10;2.20;;;1.15;;
74158;SDS011;62511;47.970;11.774;2023-03-20T01:40:39;1.85;;;1.15;;
74158;SDS011;62511;47.970;11.774;2023-03-20T01:43:17;1.98;;;1.27;;
74158;SDS011;62511;47.970;11.774;2023-03-20T01:45:53;1.20;;;1.00;;
74158;SDS011;62511;47.970;11.774;2023-03-20T01:48:20;2.08;;;1.20;;
74158;SDS011;62511;47.970;11.774;2023-03-20T01:50:48;1.80;;;1.17;;
74158;SDS011;62511;47.970;11.774;2023-03-20T01:53:15;2.03;;;0.70;;
74158;SDS011;62511;47.970;11.774;2023-03-20T01:55:42;1.38;;;1.05;;
74158;SDS011;62511;47.970;11.774;2023-03-20T01:58:12;2.28;;;1.27;;
74158;SDS011;62511;47.970;11.774;2023-03-20T02:00:40;1.45;;;1.13;;
74158;SDS011;62511;47.970;11.774;2023-03-20T02:03:06;1.70;;;1.02;;
74158;SDS011;62511;47.970;11.774;2023-03-20T02:05:33;4.10;;;1.40;;
74158;SDS011;62511;47.970;11.774;2023-03-20T02:10:35;1.52;;;1.00;;
74158;SDS011;62511;47.970;11.774;2023-03-20T02:13:01;1.88;;;1.20;;
74158;SDS011;62511;47.970;11.774;2023-03-20T02:15:28;1.95;;;1.27;;
74158;SDS011;62511;47.970;11.774;2023-03-20T02:17:55;1.45;;;1.10;;
74158;SDS011;62511;47.970;11.774;2023-03-20T02:20:30;1.80;;;1.23;;
74158;SDS011;62511;47.970;11.774;2023-03-20T02:38:57;1.45;;;1.00;;
74158;SDS011;62511;47.970;11.774;2023-03-20T02:43:58;3.50;;;1.23;;
74158;SDS011;62511;47.970;11.774;2023-03-20T02:51:39;1.13;;;1.00;;
74158;SDS011;62511;47.970;11.774;2023-03-20T02:59:01;1.20;;;0.93;;
74158;SDS011;62511;47.970;11.774;2023-03-20T03:01:40;1.67;;;1.30;;
74158;SDS011;62511;47.970;11.774;2023-03-20T03:04:16;1.50;;;1.10;;
74158;SDS011;62511;47.970;11.774;2023-03-20T03:06:43;1.15;;;1.05;;
74158;SDS011;62511;47.970;11.774;2023-03-20T03:09:12;1.08;;;0.93;;
74158;SDS011;62511;47.970;11.774;2023-03-20T03:11:43;1.55;;;1.17;;
74158;SDS011;62511;47.970;11.774;2023-03-20T03:14:14;1.27;;;1.10;;
74158;SDS011;62511;47.970;11.774;2023-03-20T03:16:41;1.23;;;1.02;;
74158;SDS011;62511;47.970;11.774;2023-03-20T03:21:35;1.05;;;0.85;;
74158;SDS011;62511;47.970;11.774;2023-03-20T03:24:03;2.13;;;1.20;;
74158;SDS011;62511;47.970;11.774;2023-03-20T03:26:31;1.42;;;1.15;;
74158;SDS011;62511;47.970;11.774;2023-03-20T03:28:59;1.70;;;1.00;;
74158;SDS011;62511;47.970;11.774;2023-03-20T03:31:26;2.15;;;1.20;;
74158;SDS011;62511;47.970;11.774;2023-03-20T03:33:54;1.35;;;0.95;;
74158;SDS011;62511;47.970;11.774;2023-03-20T03:41:54;1.75;;;1.42;;
74158;SDS011;62511;47.970;11.774;2023-03-20T03:44:30;4.03;;;0.88;;
74158;SDS011;62511;47.970;11.774;2023-03-20T03:47:00;1.85;;;0.98;;
74158;SDS011;62511;47.970;11.774;2023-03-20T03:49:29;0.82;;;0.73;;
74158;SDS011;62511;47.970;11.774;2023-03-20T03:51:59;1.00;;;0.90;;
74158;SDS011;62511;47.970;11.774;2023-03-20T03:54:27;0.73;;;0.63;;
74158;SDS011;62511;47.970;11.774;2023-03-20T03:56:56;0.60;;;0.60;;
74158;SDS011;62511;47.970;11.774;2023-03-20T03:59:27;1.58;;;0.73;;
74158;SDS011;62511;47.970;11.774;2023-03-20T04:01:54;1.13;;;0.80;;
74158;SDS011;62511;47.970;11.774;2023-03-20T04:04:20;1.27;;;0.90;;
74158;SDS011;62511;47.970;11.774;2023-03-20T04:06:47;1.77;;;1.00;;
74158;SDS011;62511;47.970;11.774;2023-03-20T04:09:13;1.23;;;0.80;;
74158;SDS011;62511;47.970;11.774;2023-03-20T04:11:39;1.73;;;0.82;;
74158;SDS011;62511;47.970;11.774;2023-03-20T04:14:05;2.17;;;0.70;;
74158;SDS011;62511;47.970;11.774;2023-03-20T04:16:31;0.80;;;0.80;;
74158;SDS011;62511;47.970;11.774;2023-03-20T04:18:57;1.05;;;0.80;;
74158;SDS011;62511;47.970;11.774;2023-03-20T04:21:23;0.80;;;0.73;;
74158;SDS011;62511;47.970;11.774;2023-03-20T04:23:49;1.42;;;0.80;;
74158;SDS011;62511;47.970;11.774;2023-03-20T04:26:15;0.98;;;0.90;;
74158;SDS011;62511;47.970;11.774;2023-03-20T04:28:41;1.23;;;0.90;;
74158;SDS011;62511;47.970;11.774;2023-03-20T04:31:07;1.65;;;1.00;;
74158;SDS011;62511;47.970;11.774;2023-03-20T04:33:33;0.63;;;0.55;;
74158;SDS011;62511;47.970;11.774;2023-03-20T04:36:00;1.30;;;0.73;;
74158;SDS011;62511;47.970;11.774;2023-03-20T04:38:26;1.02;;;0.60;;
74158;SDS011;62511;47.970;11.774;2023-03-20T04:40:52;0.80;;;0.70;;
74158;SDS011;62511;47.970;11.774;2023-03-20T04:43:18;0.60;;;0.60;;
74158;SDS011;62511;47.970;11.774;2023-03-20T04:45:44;1.55;;;1.38;;
74158;SDS011;62511;47.970;11.774;2023-03-20T04:48:10;0.80;;;0.68;;
74158;SDS011;62511;47.970;11.774;2023-03-20T04:50:36;1.27;;;0.50;;
74158;SDS011;62511;47.970;11.774;2023-03-20T04:53:02;2.20;;;0.70;;
74158;SDS011;62511;47.970;11.774;2023-03-20T04:55:28;0.75;;;0.60;;
74158;SDS011;62511;47.970;11.774;2023-03-20T04:57:54;0.65;;;0.63;;
74158;SDS011;62511;47.970;11.774;2023-03-20T05:00:20;0.68;;;0.63;;
74158;SDS011;62511;47.970;11.774;2023-03-20T05:02:46;1.00;;;0.65;;
74158;SDS011;62511;47.970;11.774;2023-03-20T05:05:12;1.05;;;0.73;;
74158;SDS011;62511;47.970;11.774;2023-03-20T05:07:38;1.00;;;0.80;;
74158;SDS011;62511;47.970;11.774;2023-03-20T05:10:05;0.85;;;0.60;;
74158;SDS011;62511;47.970;11.774;2023-03-20T05:12:31;0.80;;;0.65;;
74158;SDS011;62511;47.970;11.774;2023-03-20T05:14:57;1.02;;;0.73;;
74158;SDS011;62511;47.970;11.774;2023-03-20T05:17:24;0.82;;;0.82;;
74158;SDS011;62511;47.970;11.774;2023-03-20T05:19:50;0.80;;;0.80;;
74158;SDS011;62511;47.970;11.774;2023-03-20T05:22:17;1.38;;;0.90;;
74158;SDS011;62511;47.970;11.774;2023-03-20T05:24:43;1.77;;;0.82;;
74158;SDS011;62511;47.970;11.774;2023-03-20T05:27:09;2.25;;;0.90;;
74158;SDS011;62511;47.970;11.774;2023-03-20T05:29:35;1.23;;;0.70;;
74158;SDS011;62511;47.970;11.774;2023-03-20T05:32:02;1.02;;;0.73;;
74158;SDS011;62511;47.970;11.774;2023-03-20T05:34:28;0.77;;;0.70;;
74158;SDS011;62511;47.970;11.774;2023-03-20T05:36:54;1.58;;;0.70;;
74158;SDS011;62511;47.970;11.774;2023-03-20T05:39:20;0.77;;;0.60;;
74158;SDS011;62511;47.970;11.774;2023-03-20T05:41:46;1.45;;;0.70;;
74158;SDS011;62511;47.970;11.774;2023-03-20T05:44:13;1.50;;;1.10;;
74158;SDS011;62511;47.970;11.774;2023-03-20T05:49:06;1.90;;;1.05;;
74158;SDS011;62511;47.970;11.774;2023-03-20T05:51:32;0.82;;;0.73;;
74158;SDS011;62511;47.970;11.774;2023-03-20T05:53:59;1.35;;;0.80;;
74158;SDS011;62511;47.970;11.774;2023-03-20T05:56:27;2.05;;;0.80;;
74158;SDS011;62511;47.970;11.774;2023-03-20T05:58:53;1.30;;;1.08;;
74158;SDS011;62511;47.970;11.774;2023-03-20T06:01:19;2.78;;;0.90;;
74158;SDS011;62511;47.970;11.774;2023-03-20T06:03:48;0.93;;;0.70;;
74158;SDS011;62511;47.970;11.774;2023-03-20T06:06:15;1.13;;;0.90;;
74158;SDS011;62511;47.970;11.774;2023-03-20T06:08:41;1.80;;;0.90;;
74158;SDS011;62511;47.970;11.774;2023-03-20T06:11:07;1.02;;;0.70;;
74158;SDS011;62511;47.970;11.774;2023-03-20T06:13:34;1.67;;;0.90;;
74158;SDS011;62511;47.970;11.774;2023-03-20T06:16:00;1.13;;;0.90;;
74158;SDS011;62511;47.970;11.774;2023-03-20T06:18:27;0.90;;;0.70;;
74158;SDS011;62511;47.970;11.774;2023-03-20T06:20:53;1.48;;;0.75;;
74158;SDS011;62511;47.970;11.774;2023-03-20T06:23:20;1.15;;;0.82;;
74158;SDS011;62511;47.970;11.774;2023-03-20T06:25:46;1.30;;;0.73;;
74158;SDS011;62511;47.970;11.774;2023-03-20T06:28:12;1.63;;;1.00;;
74158;SDS011;62511;47.970;11.774;2023-03-20T06:30:38;0.88;;;0.60;;
74158;SDS011;62511;47.970;11.774;2023-03-20T06:33:07;2.38;;;1.13;;
74158;SDS011;62511;47.970;11.774;2023-03-20T06:35:36;2.10;;;1.50;;
74158;SDS011;62511;47.970;11.774;2023-03-20T06:38:02;3.22;;;1.40;;
74158;SDS011;62511;47.970;11.774;2023-03-20T06:40:28;2.42;;;1.25;;
74158;SDS011;62511;47.970;11.774;2023-03-20T06:42:54;4.18;;;1.27;;
74158;SDS011;62511;47.970;11.774;2023-03-20T06:45:20;1.58;;;1.13;;
74158;SDS011;62511;47.970;11.774;2023-03-20T06:47:47;2.42;;;1.35;;
74158;SDS011;62511;47.970;11.774;2023-03-20T06:50:13;1.75;;;1.15;;
74158;SDS011;62511;47.970;11.774;2023-03-20T06:52:39;2.13;;;1.20;;
74158;SDS011;62511;47.970;11.774;2023-03-20T06:55:06;1.70;;;1.52;;
74158;SDS011;62511;47.970;11.774;2023-03-20T06:57:32;2.35;;;1.50;;
74158;SDS011;62511;47.970;11.774;2023-03-20T06:59:59;1.88;;;1.60;;
74158;SDS011;62511;47.970;11.774;2023-03-20T07:02:25;1.80;;;1.40;;
74158;SDS011;62511;47.970;11.774;2023-03-20T07:04:52;1.30;;;1.00;;
74158;SDS011;62511;47.970;11.774;2023-03-20T07:07:18;1.70;;;1.30;;
74158;SDS011;62511;47.970;11.774;2023-03-20T07:09:44;3.30;;;1.38;;
74158;SDS011;62511;47.970;11.774;2023-03-20T07:12:12;1.70;;;1.10;;
74158;SDS011;62511;47.970;11.774;2023-03-20T07:14:43;2.00;;;1.40;;
74158;SDS011;62511;47.970;11.774;2023-03-20T07:17:10;1.60;;;1.30;;
74158;SDS011;62511;47.970;11.774;2023-03-20T07:19:36;2.17;;;1.50;;
74158;SDS011;62511;47.970;11.774;2023-03-20T07:22:04;2.20;;;1.70;;
74158;SDS011;62511;47.970;11.774;2023-03-20T07:24:32;2.40;;;1.70;;
74158;SDS011;62511;47.970;11.774;2023-03-20T07:26:59;2.33;;;1.45;;
74158;SDS011;62511;47.970;11.774;2023-03-20T07:29:25;1.20;;;0.95;;
74158;SDS011;62511;47.970;11.774;2023-03-20T07:31:51;2.08;;;1.30;;
74158;SDS011;62511;47.970;11.774;2023-03-20T07:34:17;2.35;;;1.50;;
74158;SDS011;62511;47.970;11.774;2023-03-20T07:36:43;2.78;;;1.52;;
74158;SDS011;62511;47.970;11.774;2023-03-20T07:39:10;3.15;;;1.60;;
74158;SDS011;62511;47.970;11.774;2023-03-20T07:41:36;3.42;;;1.35;;
74158;SDS011;62511;47.970;11.774;2023-03-20T07:44:02;2.72;;;1.42;;
74158;SDS011;62511;47.970;11.774;2023-03-20T07:46:29;2.13;;;1.42;;
74158;SDS011;62511;47.970;11.774;2023-03-20T07:48:57;2.42;;;1.63;;
74158;SDS011;62511;47.970;11.774;2023-03-20T07:51:23;2.92;;;1.83;;
74158;SDS011;62511;47.970;11.774;2023-03-20T07:53:49;1.95;;;1.40;;
74158;SDS011;62511;47.970;11.774;2023-03-20T07:56:15;2.58;;;1.23;;
74158;SDS011;62511;47.970;11.774;2023-03-20T07:58:41;2.03;;;1.40;;
74158;SDS011;62511;47.970;11.774;2023-03-20T08:01:07;4.60;;;1.60;;
74158;SDS011;62511;47.970;11.774;2023-03-20T08:03:33;2.10;;;1.30;;
74158;SDS011;62511;47.970;11.774;2023-03-20T08:05:59;1.70;;;1.27;;
74158;SDS011;62511;47.970;11.774;2023-03-20T08:08:25;2.47;;;1.23;;
74158;SDS011;62511;47.970;11.774;2023-03-20T08:10:51;3.15;;;1.30;;
74158;SDS011;62511;47.970;11.774;2023-03-20T08:13:17;1.35;;;1.17;;
74158;SDS011;62511;47.970;11.774;2023-03-20T08:15:45;2.33;;;1.13;;
74158;SDS011;62511;47.970;11.774;2023-03-20T08:18:12;3.42;;;1.48;;
74158;SDS011;62511;47.970;11.774;2023-03-20T08:20:38;1.77;;;1.10;;
74158;SDS011;62511;47.970;11.774;2023-03-20T08:23:05;2.28;;;1.20;;
74158;SDS011;62511;47.970;11.774;2023-03-20T08:25:31;1.60;;;1.17;;
74158;SDS011;62511;47.970;11.774;2023-03-20T08:28:01;1.02;;;0.73;;
74158;SDS011;62511;47.970;11.774;2023-03-20T08:30:26;1.17;;;1.08;;
74158;SDS011;62511;47.970;11.774;2023-03-20T08:32:52;2.80;;;1.35;;
74158;SDS011;62511;47.970;11.774;2023-03-20T08:35:19;1.65;;;1.20;;
74158;SDS011;62511;47.970;11.774;2023-03-20T08:37:45;1.77;;;1.23;;
74158;SDS011;62511;47.970;11.774;2023-03-20T08:40:13;2.00;;;0.77;;
74158;SDS011;62511;47.970;11.774;2023-03-20T08:42:39;1.88;;;1.50;;
74158;SDS011;62511;47.970;11.774;2023-03-20T08:45:05;1.55;;;1.35;;
74158;SDS011;62511;47.970;11.774;2023-03-20T08:47:31;1.52;;;1.08;;
74158;SDS011;62511;47.970;11.774;2023-03-20T08:49:57;1.83;;;1.30;;
74158;SDS011;62511;47.970;11.774;2023-03-20T08:52:24;2.33;;;1.38;;
74158;SDS011;62511;47.970;11.774;2023-03-20T08:54:51;2.08;;;1.45;;
74158;SDS011;62511;47.970;11.774;2023-03-20T08:57:17;1.70;;;1.10;;
74158;SDS011;62511;47.970;11.774;2023-03-20T08:59:43;1.55;;;1.33;;
74158;SDS011;62511;47.970;11.774;2023-03-20T09:02:10;3.17;;;1.30;;
74158;SDS011;62511;47.970;11.774;2023-03-20T09:04:36;2.45;;;1.55;;
74158;SDS011;62511;47.970;11.774;2023-03-20T09:07:02;1.98;;;1.40;;
74158;SDS011;62511;47.970;11.774;2023-03-20T09:09:28;1.70;;;1.23;;
74158;SDS011;62511;47.970;11.774;2023-03-20T09:11:55;3.05;;;1.30;;
74158;SDS011;62511;47.970;11.774;2023-03-20T09:14:21;1.63;;;1.38;;
74158;SDS011;62511;47.970;11.774;2023-03-20T09:16:48;1.88;;;1.10;;
74158;SDS011;62511;47.970;11.774;2023-03-20T09:19:14;1.38;;;1.10;;
74158;SDS011;62511;47.970;11.774;2023-03-20T09:21:40;3.50;;;1.67;;
74158;SDS011;62511;47.970;11.774;2023-03-20T09:24:06;1.40;;;1.23;;
74158;SDS011;62511;47.970;11.774;2023-03-20T09:26:32;3.50;;;1.48;;
74158;SDS011;62511;47.970;11.774;2023-03-20T09:28:59;1.88;;;1.50;;
74158;SDS011;62511;47.970;11.774;2023-03-20T09:31:25;1.75;;;1.40;;
74158;SDS011;62511;47.970;11.774;2023-03-20T09:33:51;1.90;;;1.10;;
74158;SDS011;62511;47.970;11.774;2023-03-20T09:36:17;1.48;;;1.05;;
74158;SDS011;62511;47.970;11.774;2023-03-20T09:38:43;1.42;;;1.33;;
74158;SDS011;62511;47.970;11.774;2023-03-20T09:41:27;1.40;;;1.30;;
74158;SDS011;62511;47.970;11.774;2023-03-20T09:49:18;1.17;;;1.05;;
74158;SDS011;62511;47.970;11.774;2023-03-20T09:51:50;1.38;;;0.82;;
74158;SDS011;62511;47.970;11.774;2023-03-20T09:56:48;3.40;;;0.60;;
74158;SDS011;62511;47.970;11.774;2023-03-20T09:59:15;1.10;;;0.60;;
74158;SDS011;62511;47.970;11.774;2023-03-20T10:01:55;0.90;;;0.60;;
74158;SDS011;62511;47.970;11.774;2023-03-20T10:04:22;0.93;;;0.90;;
74158;SDS011;62511;47.970;11.774;2023-03-20T10:06:51;0.60;;;0.60;;
74158;SDS011;62511;47.970;11.774;2023-03-20T10:09:24;0.80;;;0.80;;
74158;SDS011;62511;47.970;11.774;2023-03-20T10:14:42;0.80;;;0.77;;
74158;SDS011;62511;47.970;11.774;2023-03-20T10:19:43;0.85;;;0.60;;
74158;SDS011;62511;47.970;11.774;2023-03-20T10:24:57;0.60;;;0.60;;
74158;SDS011;62511;47.970;11.774;2023-03-20T10:27:25;0.63;;;0.40;;
74158;SDS011;62511;47.970;11.774;2023-03-20T10:32:35;0.77;;;0.50;;
74158;SDS011;62511;47.970;11.774;2023-03-20T10:37:47;0.80;;;0.50;;
74158;SDS011;62511;47.970;11.774;2023-03-20T10:42:44;0.38;;;0.30;;
74158;SDS011;62511;47.970;11.774;2023-03-20T10:47:56;0.82;;;0.50;;
74158;SDS011;62511;47.970;11.774;2023-03-20T10:50:27;0.50;;;0.50;;
74158;SDS011;62511;47.970;11.774;2023-03-20T10:52:54;0.73;;;0.60;;
74158;SDS011;62511;47.970;11.774;2023-03-20T10:57:59;0.40;;;0.40;;
74158;SDS011;62511;47.970;11.774;2023-03-20T11:02:53;0.47;;;0.40;;
74158;SDS011;62511;47.970;11.774;2023-03-20T11:05:29;0.50;;;0.40;;
74158;SDS011;62511;47.970;11.774;2023-03-20T11:10:28;1.00;;;0.30;;
74158;SDS011;62511;47.970;11.774;2023-03-20T11:12:57;0.30;;;0.30;;
74158;SDS011;62511;47.970;11.774;2023-03-20T11:20:24;1.95;;;0.40;;
74158;SDS011;62511;47.970;11.774;2023-03-20T11:22:57;0.63;;;0.50;;
74158;SDS011;62511;47.970;11.774;2023-03-20T11:25:46;0.40;;;0.40;;
74158;SDS011;62511;47.970;11.774;2023-03-20T11:28:30;0.28;;;0.25;;
74158;SDS011;62511;47.970;11.774;2023-03-20T11:31:00;0.30;;;0.30;;
74158;SDS011;62511;47.970;11.774;2023-03-20T11:33:27;0.75;;;0.40;;
74158;SDS011;62511;47.970;11.774;2023-03-20T11:35:54;0.40;;;0.30;;
74158;SDS011;62511;47.970;11.774;2023-03-20T11:38:20;0.38;;;0.38;;
74158;SDS011;62511;47.970;11.774;2023-03-20T11:40:47;0.30;;;0.22;;
74158;SDS011;62511;47.970;11.774;2023-03-20T11:43:25;0.82;;;0.40;;
74158;SDS011;62511;47.970;11.774;2023-03-20T11:45:53;1.15;;;0.40;;
74158;SDS011;62511;47.970;11.774;2023-03-20T11:48:21;0.30;;;0.30;;
74158;SDS011;62511;47.970;11.774;2023-03-20T11:50:50;0.30;;;0.30;;
74158;SDS011;62511;47.970;11.774;2023-03-20T11:56:00;0.47;;;0.22;;
74158;SDS011;62511;47.970;11.774;2023-03-20T11:58:28;1.25;;;0.40;;
74158;SDS011;62511;47.970;11.774;2023-03-20T12:00:54;0.45;;;0.45;;
74158;SDS011;62511;47.970;11.774;2023-03-20T12:06:12;0.35;;;0.30;;
74158;SDS011;62511;47.970;11.774;2023-03-20T12:08:38;0.52;;;0.30;;
74158;SDS011;62511;47.970;11.774;2023-03-20T12:11:18;0.88;;;0.20;;
74158;SDS011;62511;47.970;11.774;2023-03-20T12:13:46;0.35;;;0.25;;
74158;SDS011;62511;47.970;11.774;2023-03-20T12:16:14;0.20;;;0.20;;
74158;SDS011;62511;47.970;11.774;2023-03-20T12:18:43;0.22;;;0.20;;
74158;SDS011;62511;47.970;11.774;2023-03-20T12:23:38;0.17;;;0.17;;
74158;SDS011;62511;47.970;11.774;2023-03-20T12:26:47;0.20;;;0.20;;
74158;SDS011;62511;47.970;11.774;2023-03-20T12:36:53;0.47;;;0.40;;
74158;SDS011;62511;47.970;11.774;2023-03-20T12:39:25;0.38;;;0.30;;
74158;SDS011;62511;47.970;11.774;2023-03-20T12:44:33;1.25;;;0.40;;
74158;SDS011;62511;47.970;11.774;2023-03-20T13:04:52;0.22;;;0.20;;
74158;SDS011;62511;47.970;11.774;2023-03-20T13:07:24;0.40;;;0.40;;
74158;SDS011;62511;47.970;11.774;2023-03-20T13:20:13;0.28;;;0.28;;
74158;SDS011;62511;47.970;11.774;2023-03-20T13:27:56;0.20;;;0.20;;
74158;SDS011;62511;47.970;11.774;2023-03-20T13:30:36;1.17;;;0.30;;
74158;SDS011;62511;47.970;11.774;2023-03-20T13:38:19;0.20;;;0.20;;
74158;SDS011;62511;47.970;11.774;2023-03-20T13:40:46;0.70;;;0.40;;
74158;SDS011;62511;47.970;11.774;2023-03-20T13:45:41;0.50;;;0.40;;
74158;SDS011;62511;47.970;11.774;2023-03-20T13:51:29;0.43;;;0.30;;
74158;SDS011;62511;47.970;11.774;2023-03-20T13:56:21;0.17;;;0.17;;
74158;SDS011;62511;47.970;11.774;2023-03-20T13:58:56;1.05;;;0.50;;
74158;SDS011;62511;47.970;11.774;2023-03-20T14:04:12;0.47;;;0.45;;
74158;SDS011;62511;47.970;11.774;2023-03-20T14:09:26;0.77;;;0.55;;
74158;SDS011;62511;47.970;11.774;2023-03-20T14:11:53;0.95;;;0.57;;
74158;SDS011;62511;47.970;11.774;2023-03-20T14:14:30;2.05;;;0.50;;
74158;SDS011;62511;47.970;11.774;2023-03-20T14:17:06;0.82;;;0.57;;
74158;SDS011;62511;47.970;11.774;2023-03-20T14:19:34;0.68;;;0.32;;
74158;SDS011;62511;47.970;11.774;2023-03-20T14:22:01;0.80;;;0.50;;
74158;SDS011;62511;47.970;11.774;2023-03-20T14:24:27;1.25;;;0.40;;
74158;SDS011;62511;47.970;11.774;2023-03-20T14:26:56;1.50;;;0.35;;
74158;SDS011;62511;47.970;11.774;2023-03-20T14:31:52;0.40;;;0.30;;
74158;SDS011;62511;47.970;11.774;2023-03-20T14:34:27;0.40;;;0.38;;
74158;SDS011;62511;47.970;11.774;2023-03-20T14:42:39;1.30;;;0.50;;
74158;SDS011;62511;47.970;11.774;2023-03-20T14:50:38;0.52;;;0.50;;
74158;SDS011;62511;47.970;11.774;2023-03-20T14:53:17;0.65;;;0.40;;
74158;SDS011;62511;47.970;11.774;2023-03-20T15:01:07;0.35;;;0.35;;
74158;SDS011;62511;47.970;11.774;2023-03-20T15:03:34;0.20;;;0.20;;
74158;SDS011;62511;47.970;11.774;2023-03-20T15:06:03;0.47;;;0.40;;
74158;SDS011;62511;47.970;11.774;2023-03-20T15:08:31;0.25;;;0.25;;
74158;SDS011;62511;47.970;11.774;2023-03-20T15:10:59;3.00;;;0.60;;
74158;SDS011;62511;47.970;11.774;2023-03-20T15:13:28;0.70;;;0.40;;
74158;SDS011;62511;47.970;11.774;2023-03-20T15:18:23;1.52;;;0.45;;
74158;SDS011;62511;47.970;11.774;2023-03-20T15:20:49;0.75;;;0.38;;
74158;SDS011;62511;47.970;11.774;2023-03-20T15:23:15;0.50;;;0.38;;
74158;SDS011;62511;47.970;11.774;2023-03-20T15:25:42;0.30;;;0.30;;
74158;SDS011;62511;47.970;11.774;2023-03-20T15:28:13;1.27;;;0.43;;
74158;SDS011;62511;47.970;11.774;2023-03-20T15:30:39;0.50;;;0.40;;
74158;SDS011;62511;47.970;11.774;2023-03-20T15:33:16;0.50;;;0.43;;
74158;SDS011;62511;47.970;11.774;2023-03-20T15:35:44;0.40;;;0.40;;
74158;SDS011;62511;47.970;11.774;2023-03-20T15:38:11;0.70;;;0.52;;
74158;SDS011;62511;47.970;11.774;2023-03-20T15:40:39;1.25;;;0.40;;
74158;SDS011;62511;47.970;11.774;2023-03-20T15:43:19;0.60;;;0.50;;
74158;SDS011;62511;47.970;11.774;2023-03-20T15:45:46;0.60;;;0.60;;
74158;SDS011;62511;47.970;11.774;2023-03-20T15:48:16;0.82;;;0.60;;
74158;SDS011;62511;47.970;11.774;2023-03-20T15:50:43;1.23;;;0.70;;
74158;SDS011;62511;47.970;11.774;2023-03-20T15:53:21;0.82;;;0.60;;
74158;SDS011;62511;47.970;11.774;2023-03-20T15:55:48;0.50;;;0.50;;
74158;SDS011;62511;47.970;11.774;2023-03-20T15:58:15;0.50;;;0.50;;
74158;SDS011;62511;47.970;11.774;2023-03-20T16:00:43;1.20;;;0.60;;
74158;SDS011;62511;47.970;11.774;2023-03-20T16:03:10;0.60;;;0.50;;
74158;SDS011;62511;47.970;11.774;2023-03-20T16:05:38;0.50;;;0.50;;
74158;SDS011;62511;47.970;11.774;2023-03-20T16:08:11;0.68;;;0.63;;
74158;SDS011;62511;47.970;11.774;2023-03-20T16:10:39;0.93;;;0.50;;
74158;SDS011;62511;47.970;11.774;2023-03-20T16:13:06;0.75;;;0.55;;
74158;SDS011;62511;47.970;11.774;2023-03-20T16:15:32;0.80;;;0.55;;
74158;SDS011;62511;47.970;11.774;2023-03-20T16:18:00;1.20;;;0.63;;
74158;SDS011;62511;47.970;11.774;2023-03-20T16:20:27;0.65;;;0.60;;
74158;SDS011;62511;47.970;11.774;2023-03-20T16:22:58;0.70;;;0.63;;
74158;SDS011;62511;47.970;11.774;2023-03-20T16:25:25;0.70;;;0.55;;
74158;SDS011;62511;47.970;11.774;2023-03-20T16:27:51;0.75;;;0.70;;
74158;SDS011;62511;47.970;11.774;2023-03-20T16:30:24;0.85;;;0.65;;
74158;SDS011;62511;47.970;11.774;2023-03-20T16:33:05;1.00;;;0.80;;
74158;SDS011;62511;47.970;11.774;2023-03-20T16:35:39;0.90;;;0.75;;
74158;SDS011;62511;47.970;11.774;2023-03-20T16:38:24;1.25;;;0.60;;
74158;SDS011;62511;47.970;11.774;2023-03-20T16:40:55;1.17;;;0.88;;
74158;SDS011;62511;47.970;11.774;2023-03-20T16:43:25;1.00;;;0.65;;
74158;SDS011;62511;47.970;11.774;2023-03-20T16:45:53;0.98;;;0.80;;
74158;SDS011;62511;47.970;11.774;2023-03-20T16:48:23;1.20;;;0.60;;
74158;SDS011;62511;47.970;11.774;2023-03-20T16:50:57;1.00;;;0.82;;
74158;SDS011;62511;47.970;11.774;2023-03-20T16:55:50;0.95;;;0.60;;
74158;SDS011;62511;47.970;11.774;2023-03-20T16:58:19;0.63;;;0.60;;
74158;SDS011;62511;47.970;11.774;2023-03-20T17:00:56;1.25;;;0.70;;
74158;SDS011;62511;47.970;11.774;2023-03-20T17:03:33;0.70;;;0.70;;
74158;SDS011;62511;47.970;11.774;2023-03-20T17:06:46;2.88;;;0.80;;
74158;SDS011;62511;47.970;11.774;2023-03-20T17:09:00;0.90;;;0.80;;
74158;SDS011;62511;47.970;11.774;2023-03-20T17:11:32;0.85;;;0.70;;
74158;SDS011;62511;47.970;11.774;2023-03-20T17:13:58;0.95;;;0.70;;
74158;SDS011;62511;47.970;11.774;2023-03-20T17:16:24;0.82;;;0.65;;
74158;SDS011;62511;47.970;11.774;2023-03-20T17:19:24;0.82;;;0.80;;
74158;SDS011;62511;47.970;11.774;2023-03-20T17:21:43;1.13;;;0.77;;
74158;SDS011;62511;47.970;11.774;2023-03-20T17:24:10;0.98;;;0.65;;
74158;SDS011;62511;47.970;11.774;2023-03-20T17:26:36;0.95;;;0.70;;
74158;SDS011;62511;47.970;11.774;2023-03-20T17:29:03;1.48;;;1.00;;
74158;SDS011;62511;47.970;11.774;2023-03-20T17:31:29;1.60;;;0.77;;
74158;SDS011;62511;47.970;11.774;2023-03-20T17:33:56;2.42;;;0.82;;
74158;SDS011;62511;47.970;11.774;2023-03-20T17:36:23;2.15;;;1.00;;
74158;SDS011;62511;47.970;11.774;2023-03-20T17:38:52;1.23;;;0.88;;
74158;SDS011;62511;47.970;11.774;2023-03-20T17:41:18;2.03;;;1.17;;